Time;durP1;ratioP1;P1;durP2;ratioP2;P2;SDS_P1;SDS_P2;PMS_P1;PMS_P2;Temp;Humidity;BMP_temperature;BMP_pressure;BME280_temperature;BME280_humidity;BME280_pressure;Samples;Min_cycle;Max_cycle;Signal;HPM_P1;HPM_P2
2022/11/26 00:00:47;;;;;;;;;;;18.50;66.10;;;;;;5042619;28;924;-69
2022/11/26 00:03:13;;;;;;;;;;;18.50;66.10;;;;;;5044480;28;1385;-69
2022/11/26 00:05:39;;;;;;;;;;;18.50;66.10;;;;;;5040087;28;887;-69
2022/11/26 00:08:08;;;;;;;;;;;18.50;66.10;;;;;;5023265;28;1284;-69
2022/11/26 00:10:34;;;;;;;;;;;18.50;66.10;;;;;;5041386;28;1010;-69
2022/11/26 00:12:59;;;;;;;;;;;18.50;66.10;;;;;;5033786;28;941;-69
2022/11/26 00:15:28;;;;;;;;;;;18.50;66.10;;;;;;5039835;28;1914;-68
2022/11/26 00:17:54;;;;;;;;;;;18.50;66.10;;;;;;5042133;28;1272;-69
2022/11/26 00:20:20;;;;;;;;;;;18.50;66.10;;;;;;5039583;28;886;-69
2022/11/26 00:22:50;;;;;;;;;;;18.50;66.10;;;;;;5027864;28;1177;-69
2022/11/26 00:25:16;;;;;;;;;;;18.50;66.10;;;;;;5042342;28;828;-68
2022/11/26 00:27:42;;;;;;;;;;;18.50;66.10;;;;;;5043135;28;1383;-69
2022/11/26 00:30:28;;;;;;;;;;;18.50;66.10;;;;;;5043333;28;1297;-69
2022/11/26 00:32:54;;;;;;;;;;;18.40;66.10;;;;;;5035752;28;959;-69
2022/11/26 00:35:19;;;;;;;;;;;18.50;66.10;;;;;;5024552;28;1918;-69
2022/11/26 00:37:47;;;;;;;;;;;18.50;66.10;;;;;;5023948;28;1284;-69
2022/11/26 00:40:26;;;;;;;;;;;18.50;66.90;;;;;;5041851;28;939;-69
2022/11/26 00:42:51;;;;;;;;;;;18.40;66.10;;;;;;5022994;28;888;-69
2022/11/26 00:45:18;;;;;;;;;;;18.50;66.10;;;;;;5037373;28;884;-69
2022/11/26 00:47:43;;;;;;;;;;;18.50;66.20;;;;;;5039695;28;1270;-69
2022/11/26 00:50:12;;;;;;;;;;;18.40;66.10;;;;;;5040144;28;1335;-69
2022/11/26 00:52:38;;;;;;;;;;;18.50;66.20;;;;;;5038653;28;919;-69
2022/11/26 00:55:05;;;;;;;;;;;18.50;66.20;;;;;;5041409;28;1906;-69
2022/11/26 00:57:31;;;;;;;;;;;18.50;66.20;;;;;;5037799;28;1317;-69
2022/11/26 00:59:56;;;;;;;;;;;18.50;66.20;;;;;;5041195;28;888;-69
2022/11/26 01:02:22;;;;;;;;;;;18.40;66.10;;;;;;5038494;28;804;-69
2022/11/26 01:04:47;;;;;;;;;;;18.50;66.20;;;;;;5042151;28;884;-69
2022/11/26 01:07:13;;;;;;;;;;;18.50;66.20;;;;;;5043063;28;1327;-69
2022/11/26 01:09:38;;;;;;;;;;;18.50;66.20;;;;;;5041230;28;886;-69
2022/11/26 01:12:05;;;;;;;;;;;18.50;66.20;;;;;;5041766;28;1507;-69
2022/11/26 01:14:30;;;;;;;;;;;18.40;66.10;;;;;;5042953;28;1902;-69
2022/11/26 01:16:56;;;;;;;;;;;18.40;66.10;;;;;;5044930;28;1753;-69
2022/11/26 01:19:21;;;;;;;;;;;18.40;66.10;;;;;;5043109;28;1414;-68
2022/11/26 01:21:47;;;;;;;;;;;18.40;66.10;;;;;;5043813;28;1332;-68
2022/11/26 01:24:12;;;;;;;;;;;18.40;66.20;;;;;;5042579;28;1501;-68
2022/11/26 01:26:41;;;;;;;;;;;18.40;66.20;;;;;;5040984;28;1343;-69
2022/11/26 01:29:08;;;;;;;;;;;18.40;66.20;;;;;;5043813;28;1403;-69
2022/11/26 01:31:34;;;;;;;;;;;18.40;66.20;;;;;;5040613;28;900;-68
2022/11/26 01:33:59;;;;;;;;;;;18.40;66.20;;;;;;5041055;28;1914;-68
2022/11/26 01:36:29;;;;;;;;;;;18.40;66.20;;;;;;5037619;28;858;-68
2022/11/26 01:38:55;;;;;;;;;;;18.40;66.20;;;;;;5037532;28;1275;-68
2022/11/26 01:41:40;;;;;;;;;;;18.40;66.20;;;;;;5020327;28;1015;-69
2022/11/26 01:44:06;;;;;;;;;;;18.40;66.20;;;;;;5042175;28;872;-69
2022/11/26 01:46:32;;;;;;;;;;;18.40;66.20;;;;;;5028853;28;983;-69
2022/11/26 01:49:17;;;;;;;;;;;18.40;66.20;;;;;;5024983;28;1340;-68
2022/11/26 01:51:42;;;;;;;;;;;18.40;66.30;;;;;;5037871;28;871;-69
2022/11/26 01:54:08;;;;;;;;;;;18.40;66.20;;;;;;5042407;28;1957;-68
2022/11/26 01:56:37;;;;;;;;;;;18.40;66.20;;;;;;5036165;28;1501;-68
2022/11/26 01:59:09;;;;;;;;;;;18.40;66.30;;;;;;5037610;28;1161;-68
2022/11/26 02:01:34;;;;;;;;;;;18.40;66.20;;;;;;5031297;28;895;-68
2022/11/26 02:04:14;;;;;;;;;;;18.40;66.20;;;;;;5038072;28;1437;-69
2022/11/26 02:06:40;;;;;;;;;;;18.40;66.30;;;;;;5040074;28;944;-69
2022/11/26 02:09:06;;;;;;;;;;;18.40;66.30;;;;;;5039368;28;1355;-69
2022/11/26 02:11:31;;;;;;;;;;;18.40;66.30;;;;;;5033456;28;995;-69
2022/11/26 02:13:58;;;;;;;;;;;18.40;66.30;;;;;;5038282;28;1965;-69
2022/11/26 02:16:23;;;;;;;;;;;18.40;66.30;;;;;;5040013;28;958;-69
2022/11/26 02:18:52;;;;;;;;;;;18.40;66.30;;;;;;5043104;28;1354;-69
2022/11/26 02:21:23;;;;;;;;;;;18.40;66.30;;;;;;5036934;28;1612;-69
2022/11/26 02:24:07;;;;;;;;;;;18.40;66.30;;;;;;5037421;28;851;-69
2022/11/26 02:26:41;;;;;;;;;;;18.40;66.30;;;;;;5037296;28;923;-69
2022/11/26 02:29:12;;;;;;;;;;;18.40;66.30;;;;;;5022077;28;1268;-70
2022/11/26 02:31:44;;;;;;;;;;;18.40;66.30;;;;;;5038676;28;824;-69
2022/11/26 02:34:48;;;;;;;;;;;18.40;66.30;;;;;;5034952;28;1914;-70
2022/11/26 02:37:15;;;;;;;;;;;18.40;66.30;;;;;;4970248;28;1245;-69
2022/11/26 02:39:40;;;;;;;;;;;18.40;66.30;;;;;;4953424;28;1030;-69
2022/11/26 02:42:21;;;;;;;;;;;18.40;66.30;;;;;;5001849;28;1127;-69
2022/11/26 02:44:46;;;;;;;;;;;18.40;66.30;;;;;;5037928;28;947;-69
2022/11/26 02:47:13;;;;;;;;;;;18.40;66.30;;;;;;5037108;28;2365;-69
2022/11/26 02:49:39;;;;;;;;;;;18.40;66.30;;;;;;5007956;28;906;-69
2022/11/26 02:52:04;;;;;;;;;;;18.40;66.40;;;;;;5020446;28;867;-70
2022/11/26 02:54:29;;;;;;;;;;;18.40;66.40;;;;;;5018695;28;1902;-69
2022/11/26 02:56:55;;;;;;;;;;;18.30;66.30;;;;;;5033070;28;1043;-69
2022/11/26 02:59:20;;;;;;;;;;;18.40;67.10;;;;;;5027690;28;1300;-68
2022/11/26 03:01:48;;;;;;;;;;;18.40;66.40;;;;;;5027489;28;849;-69
2022/11/26 03:04:16;;;;;;;;;;;18.40;66.40;;;;;;5037770;28;1014;-69
2022/11/26 03:06:41;;;;;;;;;;;18.40;66.40;;;;;;5038686;28;1018;-68
2022/11/26 03:09:07;;;;;;;;;;;18.40;66.40;;;;;;5040233;28;1275;-69
2022/11/26 03:11:32;;;;;;;;;;;18.40;66.40;;;;;;5039590;28;923;-69
2022/11/26 03:13:58;;;;;;;;;;;18.40;66.40;;;;;;5040270;28;1963;-68
2022/11/26 03:16:23;;;;;;;;;;;18.40;66.40;;;;;;5041160;28;938;-69
2022/11/26 03:18:49;;;;;;;;;;;18.40;66.40;;;;;;5045001;28;1261;-69
2022/11/26 03:21:14;;;;;;;;;;;18.40;66.40;;;;;;4988200;28;1111552;-69
2022/11/26 03:23:40;;;;;;;;;;;18.40;66.40;;;;;;5040617;28;1700;-68
2022/11/26 03:26:05;;;;;;;;;;;18.40;66.40;;;;;;5040881;28;906;-68
2022/11/26 03:28:31;;;;;;;;;;;18.40;66.40;;;;;;5038708;28;1675;-70
2022/11/26 03:30:56;;;;;;;;;;;18.40;66.40;;;;;;5039519;28;1641;-68
2022/11/26 03:33:22;;;;;;;;;;;18.40;66.40;;;;;;5029858;28;1910;-68
2022/11/26 03:35:47;;;;;;;;;;;18.30;66.30;;;;;;5040885;28;892;-69
2022/11/26 03:38:13;;;;;;;;;;;18.30;66.30;;;;;;5040481;28;1320;-69
2022/11/26 03:40:38;;;;;;;;;;;18.40;66.40;;;;;;5042063;28;937;-69
2022/11/26 03:43:04;;;;;;;;;;;18.40;66.40;;;;;;5023989;28;1124;-68
2022/11/26 03:45:29;;;;;;;;;;;18.40;66.40;;;;;;5040692;28;954;-69
2022/11/26 03:47:54;;;;;;;;;;;18.40;66.40;;;;;;5042206;28;1343;-69
2022/11/26 03:50:20;;;;;;;;;;;18.40;66.40;;;;;;5041873;28;1002;-68
2022/11/26 03:52:45;;;;;;;;;;;18.40;66.40;;;;;;5041400;28;839;-69
2022/11/26 03:55:11;;;;;;;;;;;18.40;66.40;;;;;;5041514;28;1902;-69
2022/11/26 03:57:36;;;;;;;;;;;18.40;66.40;;;;;;5043208;28;1296;-69
2022/11/26 04:00:03;;;;;;;;;;;18.40;66.40;;;;;;5045381;28;944;-69
2022/11/26 04:02:28;;;;;;;;;;;18.40;66.40;;;;;;5044036;28;966;-68
2022/11/26 04:04:54;;;;;;;;;;;18.40;66.40;;;;;;5041736;28;1775;-69
2022/11/26 04:07:19;;;;;;;;;;;18.40;66.40;;;;;;5041002;28;1363;-68
2022/11/26 04:09:45;;;;;;;;;;;18.40;66.40;;;;;;5041947;28;879;-69
2022/11/26 04:12:10;;;;;;;;;;;18.40;66.40;;;;;;5041405;28;954;-68
2022/11/26 04:14:36;;;;;;;;;;;18.40;66.40;;;;;;5041357;28;1963;-68
2022/11/26 04:17:01;;;;;;;;;;;18.40;66.40;;;;;;5041168;28;1077;-68
2022/11/26 04:19:27;;;;;;;;;;;18.40;66.40;;;;;;5039095;28;1178;-69
2022/11/26 04:21:52;;;;;;;;;;;18.40;66.40;;;;;;5039397;28;888;-69
2022/11/26 04:24:17;;;;;;;;;;;18.40;66.30;;;;;;5040580;28;876;-69
2022/11/26 04:26:43;;;;;;;;;;;18.40;66.40;;;;;;5041061;28;843;-69
2022/11/26 04:29:08;;;;;;;;;;;18.40;66.40;;;;;;5041261;28;1245;-70
2022/11/26 04:31:34;;;;;;;;;;;18.40;66.40;;;;;;5041861;28;1010;-69
2022/11/26 04:33:59;;;;;;;;;;;18.40;66.30;;;;;;5041737;28;1965;-69
2022/11/26 04:36:25;;;;;;;;;;;18.40;66.40;;;;;;5041005;28;922;-70
2022/11/26 04:38:50;;;;;;;;;;;18.40;66.40;;;;;;5032391;28;1267;-70
2022/11/26 04:41:16;;;;;;;;;;;18.40;66.30;;;;;;5038406;28;913;-70
2022/11/26 04:43:41;;;;;;;;;;;18.40;66.30;;;;;;5040920;28;1177;-70
2022/11/26 04:46:07;;;;;;;;;;;18.40;66.30;;;;;;5041441;28;871;-69
2022/11/26 04:48:32;;;;;;;;;;;18.40;66.30;;;;;;5022403;28;1308;-69
2022/11/26 04:50:58;;;;;;;;;;;18.40;66.30;;;;;;5035904;28;1464;-70
2022/11/26 04:53:23;;;;;;;;;;;18.40;66.40;;;;;;5045199;28;1894;-69
2022/11/26 04:55:49;;;;;;;;;;;18.40;66.40;;;;;;5043591;28;847;-69
2022/11/26 04:58:15;;;;;;;;;;;18.40;66.30;;;;;;5040372;28;1770;-69
2022/11/26 05:00:40;;;;;;;;;;;18.40;66.30;;;;;;5041157;28;796;-69
2022/11/26 05:03:06;;;;;;;;;;;18.40;66.30;;;;;;5039092;28;911;-70
2022/11/26 05:05:31;;;;;;;;;;;18.40;66.30;;;;;;5039673;28;1049;-70
2022/11/26 05:07:57;;;;;;;;;;;18.40;66.30;;;;;;5036380;28;1358;-70
2022/11/26 05:10:22;;;;;;;;;;;18.40;66.30;;;;;;5037565;28;1248;-70
2022/11/26 05:12:48;;;;;;;;;;;18.40;66.30;;;;;;5040164;28;867;-70
2022/11/26 05:15:13;;;;;;;;;;;18.40;66.30;;;;;;5042287;28;1906;-69
2022/11/26 05:17:38;;;;;;;;;;;18.40;66.20;;;;;;5034420;28;1378;-69
2022/11/26 05:20:04;;;;;;;;;;;18.40;66.20;;;;;;5040985;28;938;-69
2022/11/26 05:22:30;;;;;;;;;;;18.50;66.20;;;;;;5039514;28;874;-69
2022/11/26 05:24:55;;;;;;;;;;;18.50;66.10;;;;;;5043714;28;908;-70
2022/11/26 05:27:21;;;;;;;;;;;18.50;66.10;;;;;;5039414;28;1269;-69
2022/11/26 05:29:46;;;;;;;;;;;18.50;66.00;;;;;;5043567;28;868;-68
2022/11/26 05:32:12;;;;;;;;;;;18.50;65.90;;;;;;5040415;28;891;-69
2022/11/26 05:34:37;;;;;;;;;;;18.50;65.80;;;;;;5037579;28;1975;-68
2022/11/26 05:37:03;;;;;;;;;;;18.50;65.70;;;;;;5038439;28;1563;-69
2022/11/26 05:39:28;;;;;;;;;;;18.60;65.80;;;;;;5038290;28;1288;-69
2022/11/26 05:41:54;;;;;;;;;;;18.60;65.80;;;;;;5039507;28;915;-68
2022/11/26 05:44:19;;;;;;;;;;;18.60;65.70;;;;;;5043355;28;833;-68
2022/11/26 05:46:45;;;;;;;;;;;18.60;65.60;;;;;;5041814;28;863;-69
2022/11/26 05:49:10;;;;;;;;;;;18.60;65.60;;;;;;5039742;28;1300;-68
2022/11/26 05:51:36;;;;;;;;;;;18.70;65.70;;;;;;5041638;28;1061;-68
2022/11/26 05:54:01;;;;;;;;;;;18.60;65.50;;;;;;5039353;28;1977;-69
2022/11/26 05:56:26;;;;;;;;;;;18.60;65.50;;;;;;5041416;28;812;-68
2022/11/26 05:58:52;;;;;;;;;;;18.70;65.50;;;;;;5038053;28;1307;-69
2022/11/26 06:01:17;;;;;;;;;;;18.60;65.40;;;;;;5038281;28;875;-68
2022/11/26 06:03:43;;;;;;;;;;;18.70;65.50;;;;;;5037465;28;944;-68
2022/11/26 06:06:08;;;;;;;;;;;18.70;65.40;;;;;;5038084;28;880;-68
2022/11/26 06:08:34;;;;;;;;;;;18.70;65.40;;;;;;5042923;28;1360;-70
2022/11/26 06:10:59;;;;;;;;;;;18.70;65.40;;;;;;5038392;28;938;-70
2022/11/26 06:13:25;;;;;;;;;;;18.70;65.40;;;;;;5037814;28;1902;-69
2022/11/26 06:15:50;;;;;;;;;;;18.70;65.30;;;;;;5037405;28;874;-70
2022/11/26 06:18:16;;;;;;;;;;;18.70;65.40;;;;;;5041142;28;1287;-70
2022/11/26 06:20:42;;;;;;;;;;;18.70;65.30;;;;;;5035766;28;889;-69
2022/11/26 06:23:07;;;;;;;;;;;18.70;65.30;;;;;;5037108;28;879;-69
2022/11/26 06:25:33;;;;;;;;;;;18.70;65.30;;;;;;5037643;28;1542;-70
2022/11/26 06:27:58;;;;;;;;;;;18.70;65.20;;;;;;5037372;28;1292;-69
2022/11/26 06:30:24;;;;;;;;;;;18.70;65.20;;;;;;5038329;28;947;-69
2022/11/26 06:32:49;;;;;;;;;;;18.70;65.20;;;;;;5041057;28;970;-68
2022/11/26 06:35:15;;;;;;;;;;;18.70;65.20;;;;;;5025954;28;1906;-68
2022/11/26 06:37:40;;;;;;;;;;;18.70;65.20;;;;;;5043082;28;1282;-68
2022/11/26 06:40:06;;;;;;;;;;;18.70;65.10;;;;;;5023009;28;866;-68
2022/11/26 06:42:32;;;;;;;;;;;18.70;65.10;;;;;;5036793;28;1659;-68
2022/11/26 06:44:57;;;;;;;;;;;18.70;65.10;;;;;;5030427;28;848;-68
2022/11/26 06:47:23;;;;;;;;;;;18.70;65.10;;;;;;5037088;28;1355;-68
2022/11/26 06:49:48;;;;;;;;;;;18.70;65.10;;;;;;5037052;28;829;-68
2022/11/26 06:52:13;;;;;;;;;;;18.70;65.10;;;;;;5039132;28;792;-68
2022/11/26 06:54:39;;;;;;;;;;;18.80;65.10;;;;;;5037333;28;1989;-70
2022/11/26 06:57:04;;;;;;;;;;;18.80;65.10;;;;;;5036084;28;1054;-70
2022/11/26 06:59:30;;;;;;;;;;;18.80;65.10;;;;;;5040150;28;1313;-69
2022/11/26 07:01:55;;;;;;;;;;;18.80;65.10;;;;;;5035837;28;872;-69
2022/11/26 07:04:21;;;;;;;;;;;18.80;65.10;;;;;;5039694;28;796;-70
2022/11/26 07:06:46;;;;;;;;;;;18.80;65.10;;;;;;5021671;28;999;-69
2022/11/26 07:09:12;;;;;;;;;;;18.80;65.10;;;;;;5038018;28;1272;-70
2022/11/26 07:11:37;;;;;;;;;;;18.80;65.10;;;;;;5038001;28;837;-69
2022/11/26 07:14:03;;;;;;;;;;;18.80;65.10;;;;;;5038343;28;1906;-70
2022/11/26 07:16:28;;;;;;;;;;;18.80;65.10;;;;;;5037303;28;1353;-68
2022/11/26 07:18:55;;;;;;;;;;;18.80;65.00;;;;;;5035190;28;1347;-68
2022/11/26 07:21:20;;;;;;;;;;;18.80;65.00;;;;;;5037803;28;850;-68
2022/11/26 07:23:46;;;;;;;;;;;18.80;64.90;;;;;;5039395;28;947;-68
2022/11/26 07:26:11;;;;;;;;;;;18.80;64.90;;;;;;5019644;28;1539;-68
2022/11/26 07:28:37;;;;;;;;;;;18.80;64.90;;;;;;5034453;28;1652;-68
2022/11/26 07:31:06;;;;;;;;;;;18.80;64.80;;;;;;5022967;28;921;-69
2022/11/26 07:33:32;;;;;;;;;;;18.80;64.80;;;;;;5020042;28;1914;-68
2022/11/26 07:36:01;;;;;;;;;;;18.90;64.80;;;;;;5021361;28;924;-69
2022/11/26 07:38:27;;;;;;;;;;;18.80;64.80;;;;;;5038046;28;1352;-69
2022/11/26 07:40:53;;;;;;;;;;;18.90;64.80;;;;;;5009750;28;839;-69
2022/11/26 07:43:18;;;;;;;;;;;18.90;64.80;;;;;;5020481;28;916;-70
2022/11/26 07:45:43;;;;;;;;;;;18.90;64.80;;;;;;5037186;28;1065;-69
2022/11/26 07:48:09;;;;;;;;;;;18.90;64.80;;;;;;5040553;28;1276;-70
2022/11/26 07:50:34;;;;;;;;;;;18.90;64.80;;;;;;5037922;28;1371;-69
2022/11/26 07:53:00;;;;;;;;;;;18.90;64.80;;;;;;5034719;28;915;-69
2022/11/26 07:55:25;;;;;;;;;;;18.90;64.80;;;;;;5039299;28;1898;-69
2022/11/26 07:57:51;;;;;;;;;;;18.90;64.80;;;;;;5039646;28;1292;-69
2022/11/26 08:00:17;;;;;;;;;;;18.90;64.90;;;;;;5043134;28;1014;-69
2022/11/26 08:02:42;;;;;;;;;;;18.90;64.90;;;;;;5045143;28;963;-69
2022/11/26 08:05:08;;;;;;;;;;;18.90;64.90;;;;;;5050559;28;832;-68
2022/11/26 08:07:33;;;;;;;;;;;18.80;64.80;;;;;;5044417;28;1870;-68
2022/11/26 08:09:59;;;;;;;;;;;18.80;64.80;;;;;;5036886;28;1922;-68
2022/11/26 08:12:24;;;;;;;;;;;18.80;64.90;;;;;;5039941;28;1164;-69
2022/11/26 08:14:50;;;;;;;;;;;18.80;64.90;;;;;;5044599;28;1909;-69
2022/11/26 08:17:15;;;;;;;;;;;18.80;64.90;;;;;;5040877;28;1461;-69
2022/11/26 08:19:41;;;;;;;;;;;18.80;64.90;;;;;;5046290;28;1344;-70
2022/11/26 08:22:06;;;;;;;;;;;18.80;64.90;;;;;;5045774;28;1402;-68
2022/11/26 08:24:32;;;;;;;;;;;18.80;65.00;;;;;;5041705;28;1363;-68
2022/11/26 08:26:58;;;;;;;;;;;18.80;65.00;;;;;;5043212;28;876;-69
2022/11/26 08:29:24;;;;;;;;;;;18.80;65.00;;;;;;5034161;28;1213;-68
2022/11/26 08:31:49;;;;;;;;;;;18.80;65.00;;;;;;5024438;28;2016;-69
2022/11/26 08:34:15;;;;;;;;;;;18.80;65.00;;;;;;5045207;28;1910;-69
2022/11/26 08:36:40;;;;;;;;;;;18.80;65.00;;;;;;5025546;28;813;-69
2022/11/26 08:39:06;;;;;;;;;;;18.80;65.00;;;;;;5040674;28;1323;-69
2022/11/26 08:41:31;;;;;;;;;;;18.80;64.90;;;;;;5039203;28;851;-69
2022/11/26 08:43:56;;;;;;;;;;;18.80;64.90;;;;;;5042910;28;804;-69
2022/11/26 08:46:22;;;;;;;;;;;18.80;64.90;;;;;;5039907;28;852;-69
2022/11/26 08:48:47;;;;;;;;;;;18.80;64.90;;;;;;5042684;28;1331;-69
2022/11/26 08:51:13;;;;;;;;;;;18.80;64.90;;;;;;5046333;28;837;-70
2022/11/26 08:53:38;;;;;;;;;;;18.90;64.90;;;;;;5039750;28;1902;-70
2022/11/26 08:56:05;;;;;;;;;;;18.80;64.90;;;;;;5026074;28;1298;-70
2022/11/26 08:58:34;;;;;;;;;;;18.80;64.80;;;;;;5031503;28;1440;-69
2022/11/26 09:01:06;;;;;;;;;;;18.90;65.70;;;;;;5043499;28;1349;-69
2022/11/26 09:03:31;;;;;;;;;;;18.80;64.90;;;;;;5040957;28;1545;-68
2022/11/26 09:05:59;;;;;;;;;;;18.90;64.90;;;;;;5044449;28;1506;-69
2022/11/26 09:08:26;;;;;;;;;;;18.90;64.90;;;;;;5041065;28;1343;-68
2022/11/26 09:10:54;;;;;;;;;;;18.90;64.90;;;;;;5042845;28;1309;-69
2022/11/26 09:13:20;;;;;;;;;;;18.90;64.90;;;;;;5040837;28;1366;-69
2022/11/26 09:15:46;;;;;;;;;;;18.90;64.90;;;;;;5040195;28;1898;-69
2022/11/26 09:18:11;;;;;;;;;;;18.90;64.90;;;;;;5043042;28;1514;-69
2022/11/26 09:20:37;;;;;;;;;;;18.90;65.00;;;;;;5046050;28;1328;-69
2022/11/26 09:23:02;;;;;;;;;;;18.90;65.00;;;;;;5042167;28;1361;-68
2022/11/26 09:25:28;;;;;;;;;;;18.90;65.00;;;;;;5040926;28;819;-68
2022/11/26 09:27:53;;;;;;;;;;;18.90;65.00;;;;;;5036535;28;1353;-69
2022/11/26 09:30:19;;;;;;;;;;;18.90;65.00;;;;;;5040061;28;1175;-68
2022/11/26 09:32:44;;;;;;;;;;;18.80;64.90;;;;;;5042118;28;1061;-69
2022/11/26 09:35:10;;;;;;;;;;;18.90;65.00;;;;;;5041459;28;1903;-69
2022/11/26 09:37:35;;;;;;;;;;;18.90;64.90;;;;;;5039666;28;1459;-69
2022/11/26 09:40:01;;;;;;;;;;;18.90;65.00;;;;;;5038416;28;830;-68
2022/11/26 09:42:48;;;;;;;;;;;18.90;65.00;;;;;;5040066;28;871;-69
2022/11/26 09:45:22;;;;;;;;;;;18.90;65.00;;;;;;5043529;28;1963;-69
2022/11/26 09:47:48;;;;;;;;;;;18.90;64.90;;;;;;5024499;28;1300;-68
2022/11/26 09:50:13;;;;;;;;;;;18.80;64.90;;;;;;5041911;28;855;-68
2022/11/26 09:52:40;;;;;;;;;;;18.90;64.90;;;;;;5040110;28;861;-69
2022/11/26 09:55:11;;;;;;;;;;;18.90;65.00;;;;;;5027692;28;1955;-69
2022/11/26 09:57:41;;;;;;;;;;;18.90;65.00;;;;;;5040358;28;1272;-68
2022/11/26 10:00:14;;;;;;;;;;;18.90;64.90;;;;;;5032717;28;909;-69
2022/11/26 10:02:40;;;;;;;;;;;18.90;65.00;;;;;;5021489;28;904;-69
2022/11/26 10:05:07;;;;;;;;;;;18.90;64.90;;;;;;5038071;28;892;-69
2022/11/26 10:07:52;;;;;;;;;;;18.90;64.90;;;;;;5039255;28;1252;-69
2022/11/26 10:10:20;;;;;;;;;;;18.90;64.90;;;;;;5037465;28;942;-69
2022/11/26 10:13:02;;;;;;;;;;;18.90;64.90;;;;;;5025263;28;1053;-69
2022/11/26 10:15:28;;;;;;;;;;;18.90;64.90;;;;;;5018610;28;1965;-69
2022/11/26 10:18:12;;;;;;;;;;;18.90;64.80;;;;;;5044131;28;1445;-69
2022/11/26 10:20:54;;;;;;;;;;;18.90;64.90;;;;;;5043982;28;916;-69
2022/11/26 10:23:19;;;;;;;;;;;18.90;64.80;;;;;;5039902;28;856;-68
2022/11/26 10:25:46;;;;;;;;;;;18.90;64.80;;;;;;5035994;28;890;-68
2022/11/26 10:28:17;;;;;;;;;;;18.90;64.90;;;;;;5017790;28;1360;-68
2022/11/26 10:30:43;;;;;;;;;;;18.90;64.90;;;;;;5037945;28;1092;-68
2022/11/26 10:33:10;;;;;;;;;;;18.90;64.80;;;;;;5039841;28;871;-68
2022/11/26 10:35:37;;;;;;;;;;;18.90;64.90;;;;;;5041364;28;1983;-68
2022/11/26 10:38:03;;;;;;;;;;;18.90;64.90;;;;;;5036925;28;1547;-68
2022/11/26 10:40:29;;;;;;;;;;;18.90;64.90;;;;;;5023108;28;1189;-68
2022/11/26 10:42:54;;;;;;;;;;;18.90;64.90;;;;;;5040459;28;862;-69
2022/11/26 10:45:20;;;;;;;;;;;18.90;64.90;;;;;;5042323;28;1235;-69
2022/11/26 10:47:46;;;;;;;;;;;18.90;64.90;;;;;;5041074;28;1374;-69
2022/11/26 10:50:16;;;;;;;;;;;18.90;65.00;;;;;;5039100;28;826;-69
2022/11/26 10:52:42;;;;;;;;;;;18.80;64.90;;;;;;5022393;28;861;-68
2022/11/26 10:55:17;;;;;;;;;;;18.80;64.90;;;;;;5031283;28;1974;-68
2022/11/26 10:57:45;;;;;;;;;;;18.90;65.00;;;;;;5038197;28;1327;-69
2022/11/26 11:00:34;;;;;;;;;;;18.80;64.90;;;;;;5024852;28;844;-69
2022/11/26 11:03:00;;;;;;;;;;;18.80;64.90;;;;;;5028565;28;1327;-68
2022/11/26 11:05:25;;;;;;;;;;;18.80;64.90;;;;;;5029868;28;805;-68
2022/11/26 11:07:53;;;;;;;;;;;18.90;65.00;;;;;;5037389;28;1298;-68
2022/11/26 11:10:23;;;;;;;;;;;18.90;64.90;;;;;;5041148;28;878;-69
2022/11/26 11:12:57;;;;;;;;;;;18.90;64.90;;;;;;5038568;28;942;-69
2022/11/26 11:15:24;;;;;;;;;;;18.90;64.90;;;;;;5036329;28;1902;-68
2022/11/26 11:18:02;;;;;;;;;;;18.90;64.90;;;;;;5037036;28;1451;-68
2022/11/26 11:20:29;;;;;;;;;;;18.90;64.90;;;;;;5036268;28;915;-68
2022/11/26 11:22:59;;;;;;;;;;;18.90;64.90;;;;;;5038065;28;833;-68
2022/11/26 11:25:25;;;;;;;;;;;18.90;64.80;;;;;;5019383;28;1007;-68
2022/11/26 11:27:51;;;;;;;;;;;18.90;64.80;;;;;;5029236;28;1339;-68
2022/11/26 11:30:27;;;;;;;;;;;18.90;64.80;;;;;;5018037;28;833;-69
2022/11/26 11:32:56;;;;;;;;;;;18.90;64.80;;;;;;5036442;28;1347;-68
2022/11/26 11:35:23;;;;;;;;;;;18.90;64.80;;;;;;5040362;28;1918;-68
2022/11/26 11:37:50;;;;;;;;;;;18.90;64.80;;;;;;5040766;28;1244;-68
2022/11/26 11:40:17;;;;;;;;;;;18.90;64.80;;;;;;5040031;28;838;-68
2022/11/26 11:42:47;;;;;;;;;;;18.90;64.80;;;;;;5033437;28;951;-68
2022/11/26 11:45:18;;;;;;;;;;;18.90;64.80;;;;;;5027345;28;852;-68
2022/11/26 11:47:43;;;;;;;;;;;18.90;64.80;;;;;;5032534;28;1272;-68
2022/11/26 11:50:15;;;;;;;;;;;18.90;64.80;;;;;;5032126;28;886;-68
2022/11/26 11:52:52;;;;;;;;;;;18.90;64.80;;;;;;5041517;28;884;-68
2022/11/26 11:55:39;;;;;;;;;;;18.90;64.80;;;;;;5039374;28;2030;-68
2022/11/26 11:58:23;;;;;;;;;;;18.90;65.50;;;;;;5030951;28;1751;-69
2022/11/26 12:00:52;;;;;;;;;;;18.90;64.80;;;;;;5042053;28;881;-68
2022/11/26 12:03:36;;;;;;;;;;;18.90;64.70;;;;;;5031558;28;2081;-69
2022/11/26 12:06:17;;;;;;;;;;;18.90;64.70;;;;;;5041200;28;1437;-69
2022/11/26 12:09:01;;;;;;;;;;;18.90;64.80;;;;;;5041818;28;1271;-69
2022/11/26 12:11:26;;;;;;;;;;;18.90;64.80;;;;;;5042630;28;844;-69
2022/11/26 12:13:53;;;;;;;;;;;18.90;64.70;;;;;;5042476;28;1977;-69
2022/11/26 12:16:19;;;;;;;;;;;18.90;64.80;;;;;;5024334;28;1375;-69
2022/11/26 12:18:52;;;;;;;;;;;18.90;64.70;;;;;;5026776;28;1355;-69
2022/11/26 12:21:25;;;;;;;;;;;18.90;64.80;;;;;;5024920;28;875;-69
2022/11/26 12:23:56;;;;;;;;;;;18.90;64.70;;;;;;5032302;28;1409;-69
2022/11/26 12:26:26;;;;;;;;;;;18.90;64.80;;;;;;5041585;28;885;-70
2022/11/26 12:29:02;;;;;;;;;;;18.90;64.70;;;;;;5037658;28;1328;-70
2022/11/26 12:31:32;;;;;;;;;;;18.90;64.70;;;;;;5032446;28;887;-70
2022/11/26 12:34:00;;;;;;;;;;;18.90;65.40;;;;;;5041106;28;1969;-70
2022/11/26 12:36:30;;;;;;;;;;;18.90;64.70;;;;;;5041979;28;809;-70
2022/11/26 12:38:58;;;;;;;;;;;18.90;64.70;;;;;;5009595;28;1360;-69
2022/11/26 12:41:24;;;;;;;;;;;19.00;64.80;;;;;;5025178;28;1858;-69
2022/11/26 12:44:02;;;;;;;;;;;19.00;64.70;;;;;;5022389;28;989;-69
2022/11/26 12:46:30;;;;;;;;;;;18.90;64.70;;;;;;5041605;28;1329;-69
2022/11/26 12:49:05;;;;;;;;;;;18.90;64.70;;;;;;5039153;28;1268;-69
2022/11/26 12:51:37;;;;;;;;;;;19.00;64.70;;;;;;5033248;28;1070;-69
2022/11/26 12:54:08;;;;;;;;;;;19.00;64.70;;;;;;5036238;28;2075;-69
2022/11/26 12:56:34;;;;;;;;;;;18.90;64.70;;;;;;5038787;28;1428;-69
2022/11/26 12:59:11;;;;;;;;;;;19.00;64.70;;;;;;5041518;28;1272;-69
2022/11/26 13:01:37;;;;;;;;;;;18.90;64.70;;;;;;5042174;28;890;-69
2022/11/26 13:04:02;;;;;;;;;;;18.90;64.70;;;;;;5040798;28;1069;-69
2022/11/26 13:06:33;;;;;;;;;;;18.90;64.70;;;;;;5038827;28;867;-69
2022/11/26 13:09:00;;;;;;;;;;;18.90;64.80;;;;;;5031454;28;1383;-69
2022/11/26 13:11:26;;;;;;;;;;;18.90;65.10;;;;;;5040185;28;812;-69
2022/11/26 13:14:01;;;;;;;;;;;18.90;64.80;;;;;;5043706;28;1926;-69
2022/11/26 13:16:36;;;;;;;;;;;18.90;64.80;;;;;;5041076;28;1349;-69
2022/11/26 13:19:24;;;;;;;;;;;18.90;64.80;;;;;;5036454;28;1378;-69
2022/11/26 13:22:08;;;;;;;;;;;18.90;64.80;;;;;;5041070;28;1387;-69
2022/11/26 13:24:52;;;;;;;;;;;18.90;64.90;;;;;;5043098;28;1449;-69
2022/11/26 13:27:21;;;;;;;;;;;18.90;64.90;;;;;;5038514;28;1281;-69
2022/11/26 13:30:02;;;;;;;;;;;18.90;64.90;;;;;;5026581;28;860;-69
2022/11/26 13:32:33;;;;;;;;;;;18.90;65.00;;;;;;5023023;28;2364;-69
2022/11/26 13:35:25;;;;;;;;;;;18.90;65.00;;;;;;5036218;28;1992;-70
2022/11/26 13:37:53;;;;;;;;;;;18.80;65.00;;;;;;5005095;28;1394;-69
2022/11/26 13:40:34;;;;;;;;;;;18.80;65.00;;;;;;5035686;28;821;-69
2022/11/26 13:43:00;;;;;;;;;;;18.80;65.00;;;;;;5039588;28;891;-69
2022/11/26 13:45:25;;;;;;;;;;;18.80;65.00;;;;;;5037894;28;919;-70
2022/11/26 13:47:54;;;;;;;;;;;18.80;65.10;;;;;;5035430;28;1988;-70
2022/11/26 13:50:25;;;;;;;;;;;18.80;65.10;;;;;;5038151;28;1152;-69
2022/11/26 13:52:52;;;;;;;;;;;18.80;65.10;;;;;;5039500;28;1050;-69
2022/11/26 13:55:19;;;;;;;;;;;18.80;65.10;;;;;;5037549;28;2204;-69
2022/11/26 13:57:50;;;;;;;;;;;18.80;65.20;;;;;;5022475;28;1370;-69
2022/11/26 14:00:33;;;;;;;;;;;18.80;65.20;;;;;;5025188;28;920;-70
2022/11/26 14:02:59;;;;;;;;;;;18.80;65.20;;;;;;5030197;28;840;-70
2022/11/26 14:05:43;;;;;;;;;;;18.80;65.30;;;;;;5036812;28;1351;-69
2022/11/26 14:08:29;;;;;;;;;;;18.80;65.30;;;;;;5036648;28;1270;-70
2022/11/26 14:10:55;;;;;;;;;;;18.80;65.40;;;;;;5008448;28;1180;-68
2022/11/26 14:13:20;;;;;;;;;;;18.80;65.30;;;;;;5034811;28;805;-68
2022/11/26 14:15:49;;;;;;;;;;;18.70;65.30;;;;;;5037013;28;1997;-69
2022/11/26 14:18:15;;;;;;;;;;;18.80;65.40;;;;;;5015632;28;2325;-70
2022/11/26 14:20:55;;;;;;;;;;;18.70;65.40;;;;;;5021009;28;1666;-70
2022/11/26 14:23:40;;;;;;;;;;;18.70;65.40;;;;;;5038891;28;1382;-70
2022/11/26 14:26:09;;;;;;;;;;;18.70;65.50;;;;;;5037140;28;820;-70
2022/11/26 14:28:34;;;;;;;;;;;18.70;65.40;;;;;;5038050;28;1288;-70
2022/11/26 14:31:12;;;;;;;;;;;18.70;65.50;;;;;;5040041;28;967;-70
2022/11/26 14:33:43;;;;;;;;;;;18.70;65.50;;;;;;5036705;28;1027;-70
2022/11/26 14:36:19;;;;;;;;;;;18.70;65.50;;;;;;5019434;28;812;-69
2022/11/26 14:38:45;;;;;;;;;;;18.70;65.50;;;;;;5030096;28;1284;-69
2022/11/26 14:41:10;;;;;;;;;;;18.70;65.60;;;;;;5023617;28;4229;-69